sensor_id;sensor_type;location;lat;lon;timestamp;pressure;altitude;pressure_sealevel;temperature;humidity
54262;BME280;40174;52.364;6.452;2023-04-05T00:01:23;102300.59;;;1.63;100.00
54262;BME280;40174;52.364;6.452;2023-04-05T00:03:50;102301.56;;;1.59;100.00
54262;BME280;40174;52.364;6.452;2023-04-05T00:06:18;102306.03;;;1.52;100.00
54262;BME280;40174;52.364;6.452;2023-04-05T00:08:50;102302.63;;;1.49;100.00
54262;BME280;40174;52.364;6.452;2023-04-05T00:11:19;102289.69;;;1.44;100.00
54262;BME280;40174;52.364;6.452;2023-04-05T00:13:46;102281.03;;;1.42;100.00
54262;BME280;40174;52.364;6.452;2023-04-05T00:16:15;102276.75;;;1.39;100.00
54262;BME280;40174;52.364;6.452;2023-04-05T00:18:41;102278.53;;;1.36;100.00
54262;BME280;40174;52.364;6.452;2023-04-05T00:21:10;102284.69;;;1.33;100.00
54262;BME280;40174;52.364;6.452;2023-04-05T00:23:38;102277.78;;;1.31;100.00
54262;BME280;40174;52.364;6.452;2023-04-05T00:26:05;102275.19;;;1.29;100.00
54262;BME280;40174;52.364;6.452;2023-04-05T00:28:33;102263.94;;;1.27;100.00
54262;BME280;40174;52.364;6.452;2023-04-05T00:30:59;102271.81;;;1.24;100.00
54262;BME280;40174;52.364;6.452;2023-04-05T00:33:27;102264.88;;;1.23;100.00
54262;BME280;40174;52.364;6.452;2023-04-05T00:35:54;102266.72;;;1.16;100.00
54262;BME280;40174;52.364;6.452;2023-04-05T00:38:21;102268.56;;;1.13;100.00
54262;BME280;40174;52.364;6.452;2023-04-05T00:40:47;102259.91;;;1.09;100.00
54262;BME280;40174;52.364;6.452;2023-04-05T00:43:14;102265.16;;;1.08;100.00
54262;BME280;40174;52.364;6.452;2023-04-05T00:45:40;102262.59;;;1.06;100.00
54262;BME280;40174;52.364;6.452;2023-04-05T00:48:08;102266.97;;;1.02;100.00
54262;BME280;40174;52.364;6.452;2023-04-05T00:50:36;102258.41;;;0.97;100.00
54262;BME280;40174;52.364;6.452;2023-04-05T00:53:05;102255.81;;;0.96;100.00
54262;BME280;40174;52.364;6.452;2023-04-05T00:55:34;102254.97;;;0.94;100.00
54262;BME280;40174;52.364;6.452;2023-04-05T00:58:01;102255.91;;;0.90;100.00
54262;BME280;40174;52.364;6.452;2023-04-05T01:00:28;102253.34;;;0.88;100.00
54262;BME280;40174;52.364;6.452;2023-04-05T01:02:59;102250.78;;;0.85;100.00
54262;BME280;40174;52.364;6.452;2023-04-05T01:05:29;102254.28;;;0.86;100.00
54262;BME280;40174;52.364;6.452;2023-04-05T01:08:03;102241.28;;;0.82;100.00
54262;BME280;40174;52.364;6.452;2023-04-05T01:10:34;102241.28;;;0.82;100.00
54262;BME280;40174;52.364;6.452;2023-04-05T01:13:01;102243.97;;;0.78;100.00
54262;BME280;40174;52.364;6.452;2023-04-05T01:15:29;102237.09;;;0.74;100.00
54262;BME280;40174;52.364;6.452;2023-04-05T01:17:56;102237.16;;;0.72;100.00
54262;BME280;40174;52.364;6.452;2023-04-05T01:20:26;102239.78;;;0.69;100.00
54262;BME280;40174;52.364;6.452;2023-04-05T01:23:15;102239.84;;;0.66;100.00
54262;BME280;40174;52.364;6.452;2023-04-05T01:25:56;102243.38;;;0.62;100.00
54262;BME280;40174;52.364;6.452;2023-04-05T01:28:55;102234.78;;;0.57;100.00
54262;BME280;40174;52.364;6.452;2023-04-05T01:31:28;102233.06;;;0.56;100.00
54262;BME280;40174;52.364;6.452;2023-04-05T01:33:57;102233.13;;;0.53;100.00
54262;BME280;40174;52.364;6.452;2023-04-05T01:36:28;102220.16;;;0.50;100.00
54262;BME280;40174;52.364;6.452;2023-04-05T01:38:58;102216.72;;;0.48;100.00
54262;BME280;40174;52.364;6.452;2023-04-05T01:41:26;102224.56;;;0.45;100.00
54262;BME280;40174;52.364;6.452;2023-04-05T01:43:53;102216.81;;;0.41;100.00
54262;BME280;40174;52.364;6.452;2023-04-05T01:46:20;102217.72;;;0.39;100.00
54262;BME280;40174;52.364;6.452;2023-04-05T01:48:47;102217.75;;;0.36;100.00
54262;BME280;40174;52.364;6.452;2023-04-05T01:51:14;102219.50;;;0.35;100.00
54262;BME280;40174;52.364;6.452;2023-04-05T01:53:40;102223.03;;;0.31;100.00
54262;BME280;40174;52.364;6.452;2023-04-05T01:56:07;102218.75;;;0.29;100.00
54262;BME280;40174;52.364;6.452;2023-04-05T01:58:35;102209.25;;;0.26;100.00
54262;BME280;40174;52.364;6.452;2023-04-05T02:01:02;102215.34;;;0.24;100.00
54262;BME280;40174;52.364;6.452;2023-04-05T02:03:29;102211.94;;;0.20;100.00
54262;BME280;40174;52.364;6.452;2023-04-05T02:05:57;102208.56;;;0.15;100.00
54262;BME280;40174;52.364;6.452;2023-04-05T02:08:23;102205.16;;;0.11;100.00
54262;BME280;40174;52.364;6.452;2023-04-05T02:10:51;102206.00;;;0.12;100.00
54262;BME280;40174;52.364;6.452;2023-04-05T02:13:17;102208.63;;;0.10;100.00
54262;BME280;40174;52.364;6.452;2023-04-05T02:15:46;102196.53;;;0.08;100.00
54262;BME280;40174;52.364;6.452;2023-04-05T02:18:12;102198.28;;;0.06;100.00
54262;BME280;40174;52.364;6.452;2023-04-05T02:20:39;102189.66;;;0.04;100.00
54262;BME280;40174;52.364;6.452;2023-04-05T02:23:07;102196.59;;;0.03;100.00
54262;BME280;40174;52.364;6.452;2023-04-05T02:25:34;102194.91;;;0.01;100.00
54262;BME280;40174;52.364;6.452;2023-04-05T02:28:00;102200.13;;;-0.01;100.00
54262;BME280;40174;52.364;6.452;2023-04-05T02:30:27;102189.78;;;-0.04;100.00
54262;BME280;40174;52.364;6.452;2023-04-05T02:32:53;102198.47;;;-0.07;100.00
54262;BME280;40174;52.364;6.452;2023-04-05T02:35:21;102195.91;;;-0.08;100.00
54262;BME280;40174;52.364;6.452;2023-04-05T02:37:48;102192.47;;;-0.10;100.00
54262;BME280;40174;52.364;6.452;2023-04-05T02:40:16;102202.00;;;-0.11;100.00
54262;BME280;40174;52.364;6.452;2023-04-05T02:42:42;102191.66;;;-0.15;100.00
54262;BME280;40174;52.364;6.452;2023-04-05T02:45:09;102197.78;;;-0.18;100.00
54262;BME280;40174;52.364;6.452;2023-04-05T02:47:35;102197.78;;;-0.18;100.00
54262;BME280;40174;52.364;6.452;2023-04-05T02:50:02;102198.69;;;-0.22;100.00
54262;BME280;40174;52.364;6.452;2023-04-05T02:52:34;102194.41;;;-0.25;100.00
54262;BME280;40174;52.364;6.452;2023-04-05T02:55:02;102175.38;;;-0.28;100.00
54262;BME280;40174;52.364;6.452;2023-04-05T02:57:31;102186.63;;;-0.28;100.00
54262;BME280;40174;52.364;6.452;2023-04-05T03:00:07;102187.53;;;-0.30;100.00
54262;BME280;40174;52.364;6.452;2023-04-05T03:02:36;102184.09;;;-0.32;100.00
54262;BME280;40174;52.364;6.452;2023-04-05T03:05:04;102173.75;;;-0.37;100.00
54262;BME280;40174;52.364;6.452;2023-04-05T03:07:31;102177.22;;;-0.36;100.00
54262;BME280;40174;52.364;6.452;2023-04-05T03:10:03;102173.75;;;-0.38;100.00
54262;BME280;40174;52.364;6.452;2023-04-05T03:12:34;102183.31;;;-0.40;100.00
54262;BME280;40174;52.364;6.452;2023-04-05T03:15:00;102177.31;;;-0.44;100.00
54262;BME280;40174;52.364;6.452;2023-04-05T03:17:35;102172.13;;;-0.46;100.00
54262;BME280;40174;52.364;6.452;2023-04-05T03:20:02;102171.34;;;-0.49;100.00
54262;BME280;40174;52.364;6.452;2023-04-05T03:22:34;102163.56;;;-0.51;100.00
54262;BME280;40174;52.364;6.452;2023-04-05T03:25:02;102163.59;;;-0.54;100.00
54262;BME280;40174;52.364;6.452;2023-04-05T03:27:30;102166.19;;;-0.54;100.00
54262;BME280;40174;52.364;6.452;2023-04-05T03:30:07;102165.34;;;-0.56;100.00
54262;BME280;40174;52.364;6.452;2023-04-05T03:32:39;102165.38;;;-0.59;100.00
54262;BME280;40174;52.364;6.452;2023-04-05T03:35:14;102167.13;;;-0.61;100.00
54262;BME280;40174;52.364;6.452;2023-04-05T03:37:45;102169.72;;;-0.61;100.00
54262;BME280;40174;52.364;6.452;2023-04-05T03:40:12;102174.97;;;-0.63;100.00
54262;BME280;40174;52.364;6.452;2023-04-05T03:42:38;102171.47;;;-0.63;100.00
54262;BME280;40174;52.364;6.452;2023-04-05T03:45:07;102160.28;;;-0.67;100.00
54262;BME280;40174;52.364;6.452;2023-04-05T03:47:33;102172.41;;;-0.67;100.00
54262;BME280;40174;52.364;6.452;2023-04-05T03:50:03;102162.91;;;-0.70;100.00
54262;BME280;40174;52.364;6.452;2023-04-05T03:52:30;102158.63;;;-0.72;100.00
54262;BME280;40174;52.364;6.452;2023-04-05T03:54:58;102168.19;;;-0.76;100.00
54262;BME280;40174;52.364;6.452;2023-04-05T03:57:26;102156.13;;;-0.78;100.00
54262;BME280;40174;52.364;6.452;2023-04-05T03:59:55;102150.94;;;-0.80;100.00
54262;BME280;40174;52.364;6.452;2023-04-05T04:02:24;102152.66;;;-0.80;100.00
54262;BME280;40174;52.364;6.452;2023-04-05T04:04:51;102157.03;;;-0.84;100.00
54262;BME280;40174;52.364;6.452;2023-04-05T04:07:17;102154.44;;;-0.86;100.00
54262;BME280;40174;52.364;6.452;2023-04-05T04:09:44;102156.22;;;-0.89;100.00
54262;BME280;40174;52.364;6.452;2023-04-05T04:12:11;102147.59;;;-0.91;100.00
54262;BME280;40174;52.364;6.452;2023-04-05T04:14:47;102144.16;;;-0.95;100.00
54262;BME280;40174;52.364;6.452;2023-04-05T04:17:41;102152.00;;;-0.98;100.00
54262;BME280;40174;52.364;6.452;2023-04-05T04:20:25;102136.44;;;-0.98;100.00
54262;BME280;40174;52.364;6.452;2023-04-05T04:23:10;102145.06;;;-0.99;100.00
54262;BME280;40174;52.364;6.452;2023-04-05T04:25:53;102134.69;;;-0.99;100.00
54262;BME280;40174;52.364;6.452;2023-04-05T04:28:39;102134.72;;;-1.00;100.00
54262;BME280;40174;52.364;6.452;2023-04-05T04:31:11;102129.56;;;-1.03;100.00
54262;BME280;40174;52.364;6.452;2023-04-05T04:33:54;102133.03;;;-1.06;100.00
54262;BME280;40174;52.364;6.452;2023-04-05T04:36:41;102138.28;;;-1.09;100.00
54262;BME280;40174;52.364;6.452;2023-04-05T04:39:29;102128.78;;;-1.12;100.00
54262;BME280;40174;52.364;6.452;2023-04-05T04:42:22;102138.28;;;-1.12;100.00
54262;BME280;40174;52.364;6.452;2023-04-05T04:44:58;102138.34;;;-1.14;100.00
54262;BME280;40174;52.364;6.452;2023-04-05T04:47:42;102146.16;;;-1.18;100.00
54262;BME280;40174;52.364;6.452;2023-04-05T04:50:46;102132.31;;;-1.19;100.00
54262;BME280;40174;52.364;6.452;2023-04-05T04:53:13;102133.22;;;-1.21;100.00
54262;BME280;40174;52.364;6.452;2023-04-05T04:55:42;102137.53;;;-1.23;100.00
54262;BME280;40174;52.364;6.452;2023-04-05T04:58:08;102135.88;;;-1.28;100.00
54262;BME280;40174;52.364;6.452;2023-04-05T05:00:37;102129.84;;;-1.30;100.00
54262;BME280;40174;52.364;6.452;2023-04-05T05:03:05;102140.22;;;-1.30;100.00
54262;BME280;40174;52.364;6.452;2023-04-05T05:05:32;102139.34;;;-1.30;100.00
54262;BME280;40174;52.364;6.452;2023-04-05T05:08:00;102138.53;;;-1.32;100.00
54262;BME280;40174;52.364;6.452;2023-04-05T05:10:26;102136.78;;;-1.33;100.00
54262;BME280;40174;52.364;6.452;2023-04-05T05:13:00;102142.84;;;-1.33;100.00
54262;BME280;40174;52.364;6.452;2023-04-05T05:15:26;102143.72;;;-1.32;100.00
54262;BME280;40174;52.364;6.452;2023-04-05T05:17:53;102141.13;;;-1.32;100.00
54262;BME280;40174;52.364;6.452;2023-04-05T05:20:20;102150.63;;;-1.33;100.00
54262;BME280;40174;52.364;6.452;2023-04-05T05:22:47;102148.91;;;-1.32;100.00
54262;BME280;40174;52.364;6.452;2023-04-05T05:25:15;102145.44;;;-1.33;100.00
54262;BME280;40174;52.364;6.452;2023-04-05T05:27:41;102150.59;;;-1.31;100.00
54262;BME280;40174;52.364;6.452;2023-04-05T05:30:08;102150.59;;;-1.31;100.00
54262;BME280;40174;52.364;6.452;2023-04-05T05:32:35;102149.75;;;-1.32;100.00
54262;BME280;40174;52.364;6.452;2023-04-05T05:35:01;102140.22;;;-1.31;100.00
54262;BME280;40174;52.364;6.452;2023-04-05T05:37:28;102135.91;;;-1.29;100.00
54262;BME280;40174;52.364;6.452;2023-04-05T05:39:54;102137.63;;;-1.30;100.00
54262;BME280;40174;52.364;6.452;2023-04-05T05:42:22;102135.00;;;-1.27;100.00
54262;BME280;40174;52.364;6.452;2023-04-05T05:44:49;102136.72;;;-1.26;100.00
54262;BME280;40174;52.364;6.452;2023-04-05T05:47:15;102134.94;;;-1.23;100.00
54262;BME280;40174;52.364;6.452;2023-04-05T05:49:41;102131.50;;;-1.22;100.00
54262;BME280;40174;52.364;6.452;2023-04-05T05:52:08;102139.28;;;-1.21;100.00
54262;BME280;40174;52.364;6.452;2023-04-05T05:54:34;102135.78;;;-1.18;100.00
54262;BME280;40174;52.364;6.452;2023-04-05T05:57:01;102134.88;;;-1.16;100.00
54262;BME280;40174;52.364;6.452;2023-04-05T05:59:29;102132.25;;;-1.10;100.00
54262;BME280;40174;52.364;6.452;2023-04-05T06:01:55;102131.28;;;-1.04;100.00
54262;BME280;40174;52.364;6.452;2023-04-05T06:04:21;102133.84;;;-0.99;100.00
54262;BME280;40174;52.364;6.452;2023-04-05T06:06:48;102134.69;;;-0.99;100.00
54262;BME280;40174;52.364;6.452;2023-04-05T06:09:15;102129.44;;;-0.93;100.00
54262;BME280;40174;52.364;6.452;2023-04-05T06:11:42;102134.56;;;-0.88;100.00
54262;BME280;40174;52.364;6.452;2023-04-05T06:14:08;102135.41;;;-0.85;100.00
54262;BME280;40174;52.364;6.452;2023-04-05T06:16:36;102134.44;;;-0.77;100.00
54262;BME280;40174;52.364;6.452;2023-04-05T06:19:03;102132.69;;;-0.75;100.00
54262;BME280;40174;52.364;6.452;2023-04-05T06:21:29;102135.22;;;-0.71;100.00
54262;BME280;40174;52.364;6.452;2023-04-05T06:23:56;102137.78;;;-0.66;100.00
54262;BME280;40174;52.364;6.452;2023-04-05T06:26:22;102139.44;;;-0.62;100.00
54262;BME280;40174;52.364;6.452;2023-04-05T06:28:51;102139.34;;;-0.54;100.00
54262;BME280;40174;52.364;6.452;2023-04-05T06:31:18;102131.50;;;-0.50;100.00
54262;BME280;40174;52.364;6.452;2023-04-05T06:33:46;102143.56;;;-0.46;100.00
54262;BME280;40174;52.364;6.452;2023-04-05T06:36:13;102134.84;;;-0.42;100.00
54262;BME280;40174;52.364;6.452;2023-04-05T06:38:39;102138.31;;;-0.41;100.00
54262;BME280;40174;52.364;6.452;2023-04-05T06:41:06;102136.53;;;-0.36;100.00
54262;BME280;40174;52.364;6.452;2023-04-05T06:43:32;102139.06;;;-0.31;100.00
54262;BME280;40174;52.364;6.452;2023-04-05T06:45:59;102129.47;;;-0.28;100.00
54262;BME280;40174;52.364;6.452;2023-04-05T06:48:25;102133.81;;;-0.28;100.00
54262;BME280;40174;52.364;6.452;2023-04-05T06:50:58;102135.56;;;-0.30;100.00
54262;BME280;40174;52.364;6.452;2023-04-05T06:53:24;102139.06;;;-0.31;100.00
54262;BME280;40174;52.364;6.452;2023-04-05T06:55:52;102139.00;;;-0.27;100.00
54262;BME280;40174;52.364;6.452;2023-04-05T06:58:20;102138.06;;;-0.24;100.00
54262;BME280;40174;52.364;6.452;2023-04-05T07:00:47;102143.22;;;-0.19;100.00
54262;BME280;40174;52.364;6.452;2023-04-05T07:03:14;102150.94;;;-0.15;100.00
54262;BME280;40174;52.364;6.452;2023-04-05T07:05:41;102145.53;;;-0.03;100.00
54262;BME280;40174;52.364;6.452;2023-04-05T07:08:21;102143.69;;;0.06;100.00
54262;BME280;40174;52.364;6.452;2023-04-05T07:10:47;102146.28;;;0.07;100.00
54262;BME280;40174;52.364;6.452;2023-04-05T07:13:14;102139.31;;;0.09;100.00
54262;BME280;40174;52.364;6.452;2023-04-05T07:15:41;102143.47;;;0.21;100.00
54262;BME280;40174;52.364;6.452;2023-04-05T07:18:07;102149.50;;;0.22;100.00
54262;BME280;40174;52.364;6.452;2023-04-05T07:20:34;102147.59;;;0.31;100.00
54262;BME280;40174;52.364;6.452;2023-04-05T07:23:00;102146.75;;;0.32;100.00
54262;BME280;40174;52.364;6.452;2023-04-05T07:25:29;102148.34;;;0.39;100.00
54262;BME280;40174;52.364;6.452;2023-04-05T07:30:24;102148.66;;;0.72;100.00
54262;BME280;40174;52.364;6.452;2023-04-05T07:32:50;102136.56;;;0.70;100.00
54262;BME280;40174;52.364;6.452;2023-04-05T07:35:17;102143.25;;;0.83;100.00
54262;BME280;40174;52.364;6.452;2023-04-05T07:37:44;102141.16;;;1.02;100.00
54262;BME280;40174;52.364;6.452;2023-04-05T07:40:11;102135.84;;;1.07;100.00
54262;BME280;40174;52.364;6.452;2023-04-05T07:42:39;102140.88;;;1.16;100.00
54262;BME280;40174;52.364;6.452;2023-04-05T07:45:06;102137.94;;;1.31;100.00
54262;BME280;40174;52.364;6.452;2023-04-05T07:47:33;102142.78;;;1.50;100.00
54262;BME280;40174;52.364;6.452;2023-04-05T07:52:35;102142.28;;;1.73;100.00
54262;BME280;40174;52.364;6.452;2023-04-05T07:55:02;102144.63;;;1.83;99.44
54262;BME280;40174;52.364;6.452;2023-04-05T07:57:28;102141.78;;;1.94;98.20
54262;BME280;40174;52.364;6.452;2023-04-05T07:59:56;102142.59;;;1.96;97.16
54262;BME280;40174;52.364;6.452;2023-04-05T08:02:22;102139.97;;;1.98;94.60
54262;BME280;40174;52.364;6.452;2023-04-05T08:04:49;102144.84;;;2.12;93.80
54262;BME280;40174;52.364;6.452;2023-04-05T08:07:15;102148.75;;;2.31;92.97
54262;BME280;40174;52.364;6.452;2023-04-05T08:09:42;102145.59;;;2.51;91.05
54262;BME280;40174;52.364;6.452;2023-04-05T08:12:08;102140.06;;;2.63;89.32
54262;BME280;40174;52.364;6.452;2023-04-05T08:14:35;102141.63;;;2.70;89.59
54262;BME280;40174;52.364;6.452;2023-04-05T08:17:03;102146.69;;;2.77;89.16
54262;BME280;40174;52.364;6.452;2023-04-05T08:19:30;102137.63;;;2.90;87.10
54262;BME280;40174;52.364;6.452;2023-04-05T08:24:32;102143.00;;;3.46;82.95
54262;BME280;40174;52.364;6.452;2023-04-05T08:26:58;102141.09;;;3.81;82.58
54262;BME280;40174;52.364;6.452;2023-04-05T08:29:25;102139.00;;;3.92;83.79
54262;BME280;40174;52.364;6.452;2023-04-05T08:31:54;102141.25;;;4.03;78.13
54262;BME280;40174;52.364;6.452;2023-04-05T08:34:22;102141.72;;;4.16;77.04
54262;BME280;40174;52.364;6.452;2023-04-05T08:36:49;102135.34;;;4.50;77.27
54262;BME280;40174;52.364;6.452;2023-04-05T08:39:15;102146.34;;;4.59;67.76
54262;BME280;40174;52.364;6.452;2023-04-05T08:41:44;102133.00;;;4.67;69.01
54262;BME280;40174;52.364;6.452;2023-04-05T08:44:13;102132.56;;;5.05;70.81
54262;BME280;40174;52.364;6.452;2023-04-05T08:49:23;102130.38;;;5.39;69.09
54262;BME280;40174;52.364;6.452;2023-04-05T08:51:50;102138.44;;;5.58;68.48
54262;BME280;40174;52.364;6.452;2023-04-05T08:54:16;102129.31;;;5.67;64.84
54262;BME280;40174;52.364;6.452;2023-04-05T08:56:43;102138.84;;;5.92;63.88
54262;BME280;40174;52.364;6.452;2023-04-05T08:59:11;102130.28;;;6.10;62.74
54262;BME280;40174;52.364;6.452;2023-04-05T09:01:41;102136.94;;;6.19;63.05
54262;BME280;40174;52.364;6.452;2023-04-05T09:04:10;102132.63;;;6.38;61.27
54262;BME280;40174;52.364;6.452;2023-04-05T09:06:39;102134.53;;;6.55;61.74
54262;BME280;40174;52.364;6.452;2023-04-05T09:09:06;102139.84;;;6.74;62.28
54262;BME280;40174;52.364;6.452;2023-04-05T09:11:33;102133.91;;;6.90;64.29
54262;BME280;40174;52.364;6.452;2023-04-05T09:14:01;102134.16;;;7.04;61.05
54262;BME280;40174;52.364;6.452;2023-04-05T09:16:27;102129.16;;;7.18;60.95
54262;BME280;40174;52.364;6.452;2023-04-05T09:18:54;102128.78;;;7.26;59.40
54262;BME280;40174;52.364;6.452;2023-04-05T09:21:20;102128.88;;;7.43;60.34
54262;BME280;40174;52.364;6.452;2023-04-05T09:23:52;102136.41;;;7.51;58.47
54262;BME280;40174;52.364;6.452;2023-04-05T09:26:20;102136.25;;;7.73;56.93
54262;BME280;40174;52.364;6.452;2023-04-05T09:28:49;102126.47;;;7.94;56.75
54262;BME280;40174;52.364;6.452;2023-04-05T09:31:29;102132.94;;;8.23;58.43
54262;BME280;40174;52.364;6.452;2023-04-05T09:33:56;102125.84;;;8.43;59.07
54262;BME280;40174;52.364;6.452;2023-04-05T09:36:22;102130.44;;;8.57;56.22
54262;BME280;40174;52.364;6.452;2023-04-05T09:38:49;102122.81;;;8.68;55.56
54262;BME280;40174;52.364;6.452;2023-04-05T09:41:17;102134.44;;;8.81;54.58
54262;BME280;40174;52.364;6.452;2023-04-05T09:43:44;102138.09;;;8.94;54.13
54262;BME280;40174;52.364;6.452;2023-04-05T09:46:27;102134.53;;;9.13;54.65
54262;BME280;40174;52.364;6.452;2023-04-05T09:48:54;102134.78;;;9.24;54.08
54262;BME280;40174;52.364;6.452;2023-04-05T09:51:21;102130.91;;;9.47;53.31
54262;BME280;40174;52.364;6.452;2023-04-05T09:53:57;102148.28;;;9.51;51.41
54262;BME280;40174;52.364;6.452;2023-04-05T09:56:26;102141.13;;;9.53;50.36
54262;BME280;40174;52.364;6.452;2023-04-05T09:58:57;102132.00;;;9.75;52.56
54262;BME280;40174;52.364;6.452;2023-04-05T10:01:25;102131.59;;;9.83;47.89
54262;BME280;40174;52.364;6.452;2023-04-05T10:03:52;102132.84;;;9.91;48.86
54262;BME280;40174;52.364;6.452;2023-04-05T10:06:19;102122.94;;;9.95;48.99
54262;BME280;40174;52.364;6.452;2023-04-05T10:08:46;102124.78;;;10.09;48.14
54262;BME280;40174;52.364;6.452;2023-04-05T10:11:12;102126.63;;;10.38;50.40
54262;BME280;40174;52.364;6.452;2023-04-05T10:13:41;102118.88;;;10.35;49.28
54262;BME280;40174;52.364;6.452;2023-04-05T10:16:08;102122.13;;;10.25;49.31
54262;BME280;40174;52.364;6.452;2023-04-05T10:18:38;102111.28;;;10.45;49.38
54262;BME280;40174;52.364;6.452;2023-04-05T10:21:06;102110.66;;;10.70;51.93
54262;BME280;40174;52.364;6.452;2023-04-05T10:23:36;102107.25;;;10.97;50.35
54262;BME280;40174;52.364;6.452;2023-04-05T10:26:07;102106.13;;;11.15;47.76
54262;BME280;40174;52.364;6.452;2023-04-05T10:28:36;102111.28;;;11.31;47.56
54262;BME280;40174;52.364;6.452;2023-04-05T10:31:09;102106.38;;;11.39;44.73
54262;BME280;40174;52.364;6.452;2023-04-05T10:33:38;102111.00;;;11.50;44.04
54262;BME280;40174;52.364;6.452;2023-04-05T10:36:06;102104.94;;;11.48;43.43
54262;BME280;40174;52.364;6.452;2023-04-05T10:38:38;102098.84;;;11.60;43.85
54262;BME280;40174;52.364;6.452;2023-04-05T10:41:08;102105.38;;;11.96;44.20
54262;BME280;40174;52.364;6.452;2023-04-05T10:43:35;102104.56;;;12.09;42.44
54262;BME280;40174;52.364;6.452;2023-04-05T10:46:02;102097.66;;;12.06;41.36
54262;BME280;40174;52.364;6.452;2023-04-05T10:48:39;102106.13;;;11.98;40.84
54262;BME280;40174;52.364;6.452;2023-04-05T10:51:10;102083.91;;;11.86;40.59
54262;BME280;40174;52.364;6.452;2023-04-05T10:53:37;102098.41;;;12.08;42.88
54262;BME280;40174;52.364;6.452;2023-04-05T10:56:04;102105.25;;;12.25;43.49
54262;BME280;40174;52.364;6.452;2023-04-05T10:58:30;102089.56;;;12.47;40.11
54262;BME280;40174;52.364;6.452;2023-04-05T11:00:58;102085.44;;;12.56;42.10
54262;BME280;40174;52.364;6.452;2023-04-05T11:03:45;102074.19;;;12.78;41.78
54262;BME280;40174;52.364;6.452;2023-04-05T11:06:19;102071.59;;;13.02;42.30
54262;BME280;40174;52.364;6.452;2023-04-05T11:08:46;102077.13;;;13.12;40.88
54262;BME280;40174;52.364;6.452;2023-04-05T11:11:13;102083.19;;;13.14;38.82
54262;BME280;40174;52.364;6.452;2023-04-05T11:13:46;102075.09;;;13.16;38.75
54262;BME280;40174;52.364;6.452;2023-04-05T11:16:13;102065.41;;;13.27;39.69
54262;BME280;40174;52.364;6.452;2023-04-05T11:18:43;102070.81;;;13.26;38.50
54262;BME280;40174;52.364;6.452;2023-04-05T11:21:11;102067.84;;;13.43;40.02
54262;BME280;40174;52.364;6.452;2023-04-05T11:23:58;102068.06;;;13.64;39.28
54262;BME280;40174;52.364;6.452;2023-04-05T11:26:29;102059.94;;;13.55;38.24
54262;BME280;40174;52.364;6.452;2023-04-05T11:28:56;102065.00;;;13.58;38.79
54262;BME280;40174;52.364;6.452;2023-04-05T11:31:22;102066.53;;;13.73;36.86
54262;BME280;40174;52.364;6.452;2023-04-05T11:33:54;102067.81;;;13.91;38.71
54262;BME280;40174;52.364;6.452;2023-04-05T11:36:31;102060.53;;;14.18;38.81
54262;BME280;40174;52.364;6.452;2023-04-05T11:41:43;102049.66;;;14.21;36.53
54262;BME280;40174;52.364;6.452;2023-04-05T11:44:11;102046.44;;;14.28;37.59
54262;BME280;40174;52.364;6.452;2023-04-05T11:46:39;102047.28;;;14.40;37.37
54262;BME280;40174;52.364;6.452;2023-04-05T11:49:06;102028.25;;;14.58;36.88
54262;BME280;40174;52.364;6.452;2023-04-05T11:51:33;102033.94;;;14.64;35.63
54262;BME280;40174;52.364;6.452;2023-04-05T11:54:00;102041.78;;;14.77;35.80
54262;BME280;40174;52.364;6.452;2023-04-05T11:56:26;102032.00;;;14.89;35.66
54262;BME280;40174;52.364;6.452;2023-04-05T11:58:56;102034.84;;;15.08;35.28
54262;BME280;40174;52.364;6.452;2023-04-05T12:01:23;102038.03;;;15.13;35.80
54262;BME280;40174;52.364;6.452;2023-04-05T12:03:51;102032.16;;;15.31;36.37
54262;BME280;40174;52.364;6.452;2023-04-05T12:06:20;102026.03;;;15.08;32.79
54262;BME280;40174;52.364;6.452;2023-04-05T12:08:48;102020.84;;;14.95;34.51
54262;BME280;40174;52.364;6.452;2023-04-05T12:11:15;102027.84;;;15.07;34.16
54262;BME280;40174;52.364;6.452;2023-04-05T12:13:42;102023.13;;;15.00;34.42
54262;BME280;40174;52.364;6.452;2023-04-05T12:16:10;102014.19;;;15.01;33.39
54262;BME280;40174;52.364;6.452;2023-04-05T12:18:37;102011.06;;;14.95;33.23
54262;BME280;40174;52.364;6.452;2023-04-05T12:21:04;102014.91;;;15.03;33.97
54262;BME280;40174;52.364;6.452;2023-04-05T12:23:31;102014.16;;;15.12;33.60
54262;BME280;40174;52.364;6.452;2023-04-05T12:25:59;102011.56;;;15.33;35.59
54262;BME280;40174;52.364;6.452;2023-04-05T12:28:25;102005.78;;;15.60;34.53
54262;BME280;40174;52.364;6.452;2023-04-05T12:31:12;102014.25;;;15.65;33.54
54262;BME280;40174;52.364;6.452;2023-04-05T12:33:39;102008.03;;;15.76;33.17
54262;BME280;40174;52.364;6.452;2023-04-05T12:36:06;102015.78;;;15.79;32.84
54262;BME280;40174;52.364;6.452;2023-04-05T12:38:33;102015.75;;;15.90;33.26
54262;BME280;40174;52.364;6.452;2023-04-05T12:41:03;102007.34;;;15.95;32.96
54262;BME280;40174;52.364;6.452;2023-04-05T12:43:36;102005.06;;;15.90;32.45
54262;BME280;40174;52.364;6.452;2023-04-05T12:46:05;101994.03;;;15.95;32.92
54262;BME280;40174;52.364;6.452;2023-04-05T12:48:31;101990.69;;;15.82;32.92
54262;BME280;40174;52.364;6.452;2023-04-05T12:50:58;101995.91;;;16.04;33.00
54262;BME280;40174;52.364;6.452;2023-04-05T12:53:29;101992.78;;;15.99;32.62
54262;BME280;40174;52.364;6.452;2023-04-05T12:55:56;101989.31;;;15.87;31.38
54262;BME280;40174;52.364;6.452;2023-04-05T12:58:31;101987.59;;;15.65;31.62
54262;BME280;40174;52.364;6.452;2023-04-05T13:00:58;101975.88;;;15.89;33.40
54262;BME280;40174;52.364;6.452;2023-04-05T13:03:25;101985.22;;;16.04;33.29
54262;BME280;40174;52.364;6.452;2023-04-05T13:05:51;101985.72;;;16.40;32.96
54262;BME280;40174;52.364;6.452;2023-04-05T13:08:18;101971.63;;;16.28;31.31
54262;BME280;40174;52.364;6.452;2023-04-05T13:10:45;101974.69;;;16.03;30.74